Pagrindinis puslapis
METAR-TAF:

METAR-TAF

Oro uostai :

Salinasas, Ekvadoras

platuma: 02-12-18S, ilguma: 080-59-20W, Aukštis: 5 m

Dabartinis oras

Ataskaita buvo paskelbta 44 minutes, ne 22:00 UTC
Vėjas 8 kt iš Pietvakarių
Temperatūra 24°C
Drėgmė 74%
Slėgis 1009 hPa
Matomumas 10 km arba daugiau
Su prošvaistėmis ne aukštis 1500 ft

METAR: SESA 282200Z 23008KT 9999 BKN015 24/19 Q1009 RMK A2981

Laikas: 17:44 (22:44 UTC)


TAF: trūkstamas

Orai ataskaitas ir orų prognozės (METAR, TAF).

turimą stotys yra geltonos ir raudonos taškus žemėlapyje.

Perkelti pele per norėdami pamatyti stoties vardą.

Tada spustelėkite, norėdami matyti oro stebėjimo ir prognozės.

Norėdami pakeisti žemėlapį: spustelėkite ant žalios mygtukų su juodo kryžiaus žemyn,; žalią mygtuką su brūkšneliu, jei norite nutolinti; arba žalių rodyklių gretimoms žemėlapius.


METAR-TAF: